Time;durP1;ratioP1;P1;durP2;ratioP2;P2;SDS_P1;SDS_P2;PMS_P1;PMS_P2;Temp;Humidity;BMP_temperature;BMP_pressure;BME280_temperature;BME280_humidity;BME280_pressure;Samples;Min_cycle;Max_cycle;Signal;HPM_P1;HPM_P2
2022/08/30 00:01:27;;;;;;;1.55;0.50;;;;;;;14.66;100.00;101514.56;4949775;28;20044;-83
2022/08/30 00:03:55;;;;;;;0.52;0.32;;;;;;;14.65;100.00;101515.44;4955073;28;20039;-83
2022/08/30 00:06:23;;;;;;;0.80;0.70;;;;;;;14.62;100.00;101515.47;4952806;28;20048;-83
2022/08/30 00:08:50;;;;;;;0.70;0.70;;;;;;;14.58;100.00;101509.34;4933354;28;20075;-84
2022/08/30 00:11:25;;;;;;;2.58;1.30;;;;;;;14.56;100.00;101512.00;4932646;28;20051;-84
2022/08/30 00:13:56;;;;;;;1.77;0.88;;;;;;;14.53;100.00;101514.66;4926652;28;20047;-84
2022/08/30 00:16:25;;;;;;;1.02;0.55;;;;;;;14.52;100.00;101515.56;4956879;28;20164;-83
2022/08/30 00:18:55;;;;;;;2.30;0.57;;;;;;;14.50;100.00;101517.34;4935737;28;20542;-83
2022/08/30 00:21:22;;;;;;;1.15;0.50;;;;;;;14.47;100.00;101520.00;4951889;28;20056;-84
2022/08/30 00:23:49;;;;;;;0.77;0.63;;;;;;;14.45;100.00;101526.19;4936364;28;20494;-84
2022/08/30 00:26:17;;;;;;;0.60;0.60;;;;;;;14.45;100.00;101524.41;4943761;28;20047;-84
2022/08/30 00:28:45;;;;;;;1.65;0.70;;;;;;;14.44;100.00;101524.44;4951313;28;20039;-83
2022/08/30 00:31:13;;;;;;;2.17;0.90;;;;;;;14.43;100.00;101526.22;4966231;28;20139;-83
2022/08/30 00:33:40;;;;;;;0.70;0.70;;;;;;;14.42;100.00;101516.56;4929252;29;20051;-83
2022/08/30 00:36:07;;;;;;;1.02;0.90;;;;;;;14.41;100.00;101512.16;4946048;28;20055;-83
2022/08/30 00:38:36;;;;;;;1.48;1.17;;;;;;;14.42;100.00;101515.66;4945400;28;20126;-83
2022/08/30 00:41:03;;;;;;;0.63;0.63;;;;;;;14.38;100.00;101514.84;4935509;28;20062;-84
2022/08/30 00:43:34;;;;;;;1.48;0.80;;;;;;;14.38;100.00;101514.84;4943121;28;20653;-82
2022/08/30 00:46:06;;;;;;;1.13;0.90;;;;;;;14.38;100.00;101520.13;4936803;29;20052;-83
2022/08/30 00:48:39;;;;;;;1.05;0.68;;;;;;;14.36;100.00;101520.13;4949519;28;20050;-83
2022/08/30 00:51:11;;;;;;;1.65;0.63;;;;;;;14.38;100.00;101517.50;4953409;28;20075;-83
2022/08/30 00:53:46;;;;;;;1.80;0.80;;;;;;;14.42;100.00;101506.03;4934355;28;20051;-83
2022/08/30 00:56:14;;;;;;;1.08;1.00;;;;;;;14.46;100.00;101506.88;4955375;28;20047;-84
2022/08/30 00:58:51;;;;;;;0.93;0.82;;;;;;;14.50;100.00;101503.31;4971180;28;20039;-83
2022/08/30 01:01:19;;;;;;;2.17;1.35;;;;;;;14.56;100.00;101504.09;4966554;28;20120;-83
2022/08/30 01:03:48;;;;;;;2.08;1.00;;;;;;;14.65;100.00;101510.16;4961302;28;20055;-83
2022/08/30 01:06:17;;;;;;;1.25;1.15;;;;;;;14.67;100.00;101511.91;4962259;28;20050;-83
2022/08/30 01:08:46;;;;;;;1.55;0.93;;;;;;;14.70;100.00;101516.25;4948746;28;20075;-83
2022/08/30 01:11:22;;;;;;;0.70;0.70;;;;;;;14.65;100.00;101512.81;4946046;28;20695;-83
2022/08/30 01:13:52;;;;;;;1.20;0.85;;;;;;;14.57;100.00;101518.13;4945031;28;20065;-83
2022/08/30 01:16:19;;;;;;;1.15;1.02;;;;;;;14.52;100.00;101518.19;4943702;28;20061;-83
2022/08/30 01:18:49;;;;;;;1.75;1.25;;;;;;;14.47;100.00;101519.13;4926661;28;20066;-83
2022/08/30 01:21:39;;;;;;;1.20;1.20;;;;;;;14.39;100.00;101508.66;4928907;28;20051;-83
2022/08/30 01:24:08;;;;;;;1.10;1.10;;;;;;;14.31;100.00;101514.03;4927202;28;20055;-83
2022/08/30 01:26:35;;;;;;;1.40;1.13;;;;;;;14.25;100.00;101507.94;4937333;28;20058;-84
2022/08/30 01:29:09;;;;;;;1.13;1.02;;;;;;;14.19;100.00;101520.28;4940021;28;20078;-84
2022/08/30 01:31:39;;;;;;;2.00;0.70;;;;;;;14.13;100.00;101512.47;4940943;28;20403;-84
2022/08/30 01:34:11;;;;;;;2.17;1.05;;;;;;;14.09;100.00;101512.50;4941901;28;20058;-83
2022/08/30 01:36:41;;;;;;;2.53;0.90;;;;;;;14.05;100.00;101506.38;4939921;28;20511;-84
2022/08/30 01:39:15;;;;;;;2.65;0.80;;;;;;;14.00;100.00;101514.34;4929090;28;20055;-83
2022/08/30 01:41:44;;;;;;;1.58;0.80;;;;;;;13.97;100.00;101519.63;4925889;28;20138;-84
2022/08/30 01:44:12;;;;;;;0.50;0.50;;;;;;;13.93;100.00;101517.06;4938778;28;20087;-83
2022/08/30 01:46:45;;;;;;;2.47;0.90;;;;;;;13.91;100.00;101511.81;4941865;28;20126;-84
2022/08/30 01:49:19;;;;;;;4.47;1.80;;;;;;;13.86;100.00;101509.19;4947183;28;20055;-84
2022/08/30 01:51:46;;;;;;;4.90;0.95;;;;;;;13.82;100.00;101522.38;4949620;28;20047;-83
2022/08/30 01:54:17;;;;;;;0.82;0.82;;;;;;;13.77;100.00;101519.81;4954550;28;20043;-83
2022/08/30 01:56:47;;;;;;;2.30;0.65;;;;;;;13.76;100.00;101510.16;4939944;28;20047;-83
2022/08/30 01:59:14;;;;;;;1.98;1.13;;;;;;;13.70;100.00;101510.22;4954488;28;20059;-83
2022/08/30 02:01:42;;;;;;;1.85;1.20;;;;;;;13.67;100.00;101516.38;4947686;28;20050;-83
2022/08/30 02:04:13;;;;;;;1.30;1.20;;;;;;;13.66;100.00;101513.75;4938303;28;20059;-83
2022/08/30 02:06:40;;;;;;;1.60;1.50;;;;;;;13.62;100.00;101505.00;4938523;29;20346;-83
2022/08/30 02:09:08;;;;;;;1.20;1.05;;;;;;;13.58;100.00;101505.91;4948385;28;20043;-83
2022/08/30 02:11:35;;;;;;;1.83;1.00;;;;;;;13.56;100.00;101505.06;4941130;28;20047;-84
2022/08/30 02:14:02;;;;;;;0.77;0.77;;;;;;;13.51;100.00;101512.13;4927560;29;20495;-83
2022/08/30 02:16:32;;;;;;;1.25;1.17;;;;;;;13.49;100.00;101514.78;4941952;28;20134;-83
2022/08/30 02:21:52;;;;;;;1.20;1.20;;;;;;;13.44;100.00;101513.03;4954722;28;20066;-84
2022/08/30 02:24:22;;;;;;;0.88;0.88;;;;;;;13.45;100.00;101512.16;4942682;28;20047;-83
2022/08/30 02:26:53;;;;;;;1.10;1.00;;;;;;;13.46;100.00;101512.16;4940454;28;20062;-83
2022/08/30 02:29:22;;;;;;;11.25;2.00;;;;;;;13.44;100.00;101516.56;4914304;28;20055;-82
2022/08/30 02:31:50;;;;;;;2.58;1.40;;;;;;;13.39;100.00;101515.72;4940244;28;20047;-84
2022/08/30 02:34:18;;;;;;;1.35;1.20;;;;;;;13.36;100.00;101508.72;4941385;28;20585;-84
2022/08/30 02:36:46;;;;;;;0.98;0.98;;;;;;;13.33;100.00;101516.59;4943586;28;20117;-83
2022/08/30 02:39:14;;;;;;;1.27;1.27;;;;;;;13.33;100.00;101520.97;4936690;28;20631;-83
2022/08/30 02:41:43;;;;;;;1.15;1.15;;;;;;;13.29;100.00;101512.22;4937076;28;20040;-83
2022/08/30 02:44:12;;;;;;;1.38;1.38;;;;;;;13.32;100.00;101513.97;4951496;28;20051;-84
2022/08/30 02:46:38;;;;;;;3.65;1.55;;;;;;;13.44;100.00;101518.31;4925193;29;20074;-84
2022/08/30 02:49:15;;;;;;;1.58;1.40;;;;;;;13.53;100.00;101515.59;4925523;28;20051;-84
2022/08/30 02:51:42;;;;;;;3.33;1.50;;;;;;;13.62;100.00;101518.16;4929573;28;20123;-84
2022/08/30 02:54:14;;;;;;;2.15;1.10;;;;;;;13.69;100.00;101514.63;4927761;28;20470;-84
2022/08/30 02:56:43;;;;;;;1.25;1.25;;;;;;;13.73;100.00;101518.09;4956479;28;20128;-83
2022/08/30 02:59:10;;;;;;;1.88;1.60;;;;;;;13.70;100.00;101505.84;4943018;28;20047;-84
2022/08/30 03:01:37;;;;;;;1.60;1.50;;;;;;;13.72;100.00;101513.72;4929614;29;20058;-83
2022/08/30 03:04:05;;;;;;;2.15;1.40;;;;;;;13.75;100.00;101507.56;4946117;28;20450;-83
2022/08/30 03:06:35;;;;;;;2.42;1.98;;;;;;;13.76;100.00;101504.91;4934387;28;20062;-83
2022/08/30 03:09:03;;;;;;;3.53;1.83;;;;;;;13.74;100.00;101501.44;4928273;28;20086;-83
2022/08/30 03:11:30;;;;;;;6.75;2.65;;;;;;;13.71;100.00;101507.59;4955543;28;20051;-84
2022/08/30 03:14:00;;;;;;;4.22;2.45;;;;;;;13.71;100.00;101506.69;4927088;29;20105;-83
2022/08/30 03:16:27;;;;;;;4.15;2.38;;;;;;;13.73;100.00;101518.09;4943532;28;20162;-84
2022/08/30 03:18:57;;;;;;;2.05;1.92;;;;;;;13.71;100.00;101514.59;4923015;28;20052;-83
2022/08/30 03:21:27;;;;;;;4.68;3.15;;;;;;;13.64;100.00;101505.88;4922062;28;20043;-82
2022/08/30 03:23:54;;;;;;;3.45;2.95;;;;;;;13.63;100.00;101517.28;4937779;28;20148;-83
2022/08/30 03:26:24;;;;;;;3.78;3.17;;;;;;;13.67;100.00;101515.50;4945603;28;20772;-84
2022/08/30 03:28:52;;;;;;;8.77;5.68;;;;;;;13.67;100.00;101516.38;4935184;28;20842;-81
2022/08/30 03:31:20;;;;;;;5.30;4.07;;;;;;;13.66;100.00;101517.28;4933351;28;20576;-81
2022/08/30 03:33:48;;;;;;;6.60;4.95;;;;;;;13.64;100.00;101516.41;4951401;28;20043;-83
2022/08/30 03:36:15;;;;;;;5.78;4.32;;;;;;;13.64;100.00;101515.53;4937567;28;20059;-83
2022/08/30 03:38:42;;;;;;;4.07;3.55;;;;;;;13.60;100.00;101511.16;4934792;28;20049;-82
2022/08/30 03:41:10;;;;;;;5.97;3.85;;;;;;;13.57;100.00;101514.69;4937840;28;20509;-82
2022/08/30 03:43:37;;;;;;;5.00;4.50;;;;;;;13.60;100.00;101513.78;4935470;28;20130;-82
2022/08/30 03:46:05;;;;;;;5.03;3.78;;;;;;;13.68;100.00;101517.25;4956585;28;20507;-82
2022/08/30 03:48:32;;;;;;;5.85;4.10;;;;;;;13.74;100.00;101514.59;4955804;28;20051;-82
2022/08/30 03:50:58;;;;;;;4.82;4.10;;;;;;;13.80;100.00;101513.66;4922543;28;20577;-83
2022/08/30 03:53:25;;;;;;;9.05;4.93;;;;;;;13.82;100.00;101520.66;4941819;28;20078;-83
2022/08/30 03:55:54;;;;;;;5.32;4.82;;;;;;;13.80;100.00;101509.25;4935634;28;20138;-84
2022/08/30 03:58:21;;;;;;;6.13;4.78;;;;;;;13.82;100.00;101511.84;4939409;28;20142;-83
2022/08/30 04:00:55;;;;;;;4.90;4.20;;;;;;;13.78;100.00;101512.78;4922023;28;20047;-84
2022/08/30 04:03:24;;;;;;;4.75;4.35;;;;;;;13.73;100.00;101511.06;4941195;28;20065;-83
2022/08/30 04:06:00;;;;;;;4.85;4.32;;;;;;;13.72;100.00;101516.34;4922090;29;20153;-83
2022/08/30 04:08:30;;;;;;;5.75;5.25;;;;;;;13.69;100.00;101514.63;4923469;28;20134;-83
2022/08/30 04:10:58;;;;;;;4.97;4.45;;;;;;;13.68;100.00;101515.50;4939096;28;20051;-82
2022/08/30 04:13:25;;;;;;;5.10;4.32;;;;;;;13.68;100.00;101517.25;4939738;28;20572;-82
2022/08/30 04:15:52;;;;;;;3.90;3.58;;;;;;;13.66;100.00;101514.66;4948971;28;20125;-82
2022/08/30 04:18:18;;;;;;;4.13;3.83;;;;;;;13.64;100.00;101523.44;4948003;28;20047;-83
2022/08/30 04:20:46;;;;;;;4.10;3.83;;;;;;;13.62;100.00;101526.06;4942416;28;20044;-82
2022/08/30 04:23:13;;;;;;;4.43;4.10;;;;;;;13.61;100.00;101518.19;4961263;28;20055;-82
2022/08/30 04:25:42;;;;;;;4.65;4.18;;;;;;;13.60;100.00;101522.56;4945633;28;20134;-83
2022/08/30 04:28:11;;;;;;;5.18;4.43;;;;;;;13.62;100.00;101522.56;4942371;28;20058;-82
2022/08/30 04:30:44;;;;;;;4.15;3.70;;;;;;;13.66;100.00;101527.81;4942136;28;20562;-83
2022/08/30 04:33:13;;;;;;;4.78;4.40;;;;;;;13.65;100.00;101526.06;4920410;28;20127;-83
2022/08/30 04:35:49;;;;;;;4.65;4.25;;;;;;;13.66;100.00;101532.16;4951349;28;20060;-82
2022/08/30 04:38:17;;;;;;;5.13;4.00;;;;;;;13.66;100.00;101532.16;4939524;28;20130;-83
2022/08/30 04:40:49;;;;;;;4.22;3.92;;;;;;;13.66;100.00;101529.53;4948876;28;20107;-82
2022/08/30 04:43:16;;;;;;;4.35;3.95;;;;;;;13.64;100.00;101532.19;4950173;28;20039;-82
2022/08/30 04:45:43;;;;;;;5.72;4.50;;;;;;;13.68;100.00;101535.69;4942268;28;20043;-82
2022/08/30 04:48:11;;;;;;;5.57;5.10;;;;;;;13.71;100.00;101546.16;4946222;28;20054;-82
2022/08/30 04:50:40;;;;;;;6.07;5.40;;;;;;;13.71;100.00;101543.53;4942204;28;20047;-82
2022/08/30 04:53:07;;;;;;;7.57;5.88;;;;;;;13.72;100.00;101550.56;4940935;28;20043;-82
2022/08/30 04:55:34;;;;;;;6.03;5.40;;;;;;;13.74;100.00;101546.16;4941808;28;20046;-82
2022/08/30 04:58:04;;;;;;;7.30;5.78;;;;;;;13.77;100.00;101542.63;4940168;28;20050;-82
2022/08/30 05:00:31;;;;;;;7.50;6.13;;;;;;;13.80;100.00;101545.22;4939871;28;20043;-82
2022/08/30 05:02:58;;;;;;;6.10;5.25;;;;;;;13.83;100.00;101543.44;4927224;28;20553;-83
2022/08/30 05:05:41;;;;;;;6.97;5.30;;;;;;;13.91;100.00;101551.28;4942582;28;20578;-82
2022/08/30 05:08:12;;;;;;;6.82;5.63;;;;;;;13.99;100.00;101549.44;4957810;28;20727;-84
2022/08/30 05:10:47;;;;;;;6.45;5.30;;;;;;;14.06;100.00;101545.84;4939494;28;20085;-84
2022/08/30 05:13:16;;;;;;;7.72;5.95;;;;;;;14.10;100.00;101549.34;4939187;28;20047;-84
2022/08/30 05:15:44;;;;;;;6.63;5.70;;;;;;;14.09;100.00;101547.59;4939629;28;20055;-84
2022/08/30 05:18:14;;;;;;;6.30;5.55;;;;;;;14.09;100.00;101557.25;4941280;28;20050;-83
2022/08/30 05:20:42;;;;;;;5.88;5.28;;;;;;;14.10;100.00;101559.88;4954254;28;20457;-84
2022/08/30 05:23:09;;;;;;;6.70;5.28;;;;;;;14.12;100.00;101557.22;4937560;28;20130;-82
2022/08/30 05:25:42;;;;;;;7.10;5.72;;;;;;;14.12;100.00;101573.03;4924156;28;20110;-83
2022/08/30 05:28:13;;;;;;;7.88;6.03;;;;;;;14.13;100.00;101566.88;4943588;28;20039;-82
2022/08/30 05:30:44;;;;;;;6.32;5.38;;;;;;;14.16;100.00;101569.50;4942525;28;20059;-81
2022/08/30 05:33:11;;;;;;;8.57;6.82;;;;;;;14.15;100.00;101562.47;4940042;28;20688;-83
2022/08/30 05:35:39;;;;;;;9.57;6.65;;;;;;;14.13;100.00;101565.13;4940840;28;20055;-82
2022/08/30 05:38:06;;;;;;;7.45;5.75;;;;;;;14.18;100.00;101567.72;4947789;28;20098;-83
2022/08/30 05:40:41;;;;;;;6.68;5.82;;;;;;;14.25;100.00;101566.78;4945807;28;20057;-83
2022/08/30 05:43:10;;;;;;;10.27;6.55;;;;;;;14.32;100.00;101564.94;4936257;28;20643;-83
2022/08/30 05:45:38;;;;;;;22.25;7.15;;;;;;;14.40;100.00;101568.38;4946379;28;20061;-83
2022/08/30 05:48:05;;;;;;;9.07;6.35;;;;;;;14.41;100.00;101575.41;4942171;28;20137;-81
2022/08/30 05:50:32;;;;;;;6.90;5.25;;;;;;;14.46;100.00;101570.94;4931840;28;20075;-82
2022/08/30 05:52:58;;;;;;;5.82;4.47;;;;;;;14.51;100.00;101571.78;4930095;28;20043;-83
2022/08/30 05:55:27;;;;;;;5.78;4.95;;;;;;;14.59;100.00;101576.06;4941141;28;20051;-82
2022/08/30 05:57:54;;;;;;;8.07;6.07;;;;;;;14.67;100.00;101575.13;4924417;28;20074;-82
2022/08/30 06:00:21;;;;;;;9.50;6.55;;;;;;;14.70;100.00;101571.59;4920127;28;20052;-83
2022/08/30 06:02:56;;;;;;;7.90;6.10;;;;;;;14.75;100.00;101574.19;4936385;28;20043;-81
2022/08/30 06:05:23;;;;;;;9.60;6.55;;;;;;;14.76;100.00;101574.19;4939733;28;20134;-82
2022/08/30 06:07:49;;;;;;;13.85;7.00;;;;;;;14.76;100.00;101574.19;4940327;28;20181;-82
2022/08/30 06:10:16;;;;;;;7.60;5.40;;;;;;;14.81;100.00;101577.63;4959613;28;20438;-82
2022/08/30 06:12:43;;;;;;;7.00;5.82;;;;;;;14.82;100.00;101574.09;4926807;29;20134;-82
2022/08/30 06:15:10;;;;;;;9.10;7.07;;;;;;;14.78;100.00;101580.28;4941269;28;20134;-82
2022/08/30 06:17:38;;;;;;;7.47;5.18;;;;;;;14.78;100.00;101577.66;4943047;28;20054;-81
2022/08/30 06:20:08;;;;;;;7.82;5.00;;;;;;;14.82;100.00;101573.22;4944044;28;20854;-82
2022/08/30 06:22:34;;;;;;;5.78;5.18;;;;;;;14.91;100.00;101580.16;4941333;28;20054;-82
2022/08/30 06:25:18;;;;;;;;;;;;;;;;;;;;;
2022/08/30 06:27:45;;;;;;;11.05;6.10;;;;;;;14.97;100.00;101582.72;4933463;29;20048;-83
2022/08/30 06:30:12;;;;;;;7.60;5.47;;;;;;;15.01;100.00;101587.91;4931660;28;20479;-83
2022/08/30 06:32:39;;;;;;;7.85;5.93;;;;;;;15.08;100.00;101582.56;4948857;28;20087;-83
2022/08/30 06:35:07;;;;;;;10.82;6.97;;;;;;;15.10;100.00;101589.56;4948919;28;20039;-83
2022/08/30 06:37:34;;;;;;;8.05;6.13;;;;;;;15.03;100.00;101594.06;4954585;28;20050;-82
2022/08/30 06:40:03;;;;;;;8.18;6.07;;;;;;;15.02;100.00;101589.66;4933285;28;20054;-83
2022/08/30 06:42:33;;;;;;;7.82;5.88;;;;;;;15.04;100.00;101594.91;4945038;28;20106;-82
2022/08/30 06:45:02;;;;;;;8.57;6.03;;;;;;;15.12;100.00;101597.47;4949079;28;20039;-83
2022/08/30 06:47:29;;;;;;;7.78;5.85;;;;;;;15.22;100.00;101597.31;4943367;28;20138;-83
2022/08/30 06:50:00;;;;;;;8.85;6.88;;;;;;;15.21;100.00;101597.34;4941727;28;20048;-83
2022/08/30 06:52:31;;;;;;;10.32;7.70;;;;;;;15.22;100.00;101597.31;4923600;28;20065;-83
2022/08/30 06:55:00;;;;;;;7.10;6.07;;;;;;;15.19;100.00;101591.22;4919723;28;20422;-83
2022/08/30 06:57:28;;;;;;;8.95;6.75;;;;;;;15.21;100.00;101589.44;4936546;28;20035;-82
2022/08/30 06:59:57;;;;;;;6.50;5.72;;;;;;;15.22;100.00;101588.53;4938585;28;20130;-82
2022/08/30 07:02:25;;;;;;;8.90;6.68;;;;;;;15.22;100.00;101585.91;4939387;28;20047;-83
2022/08/30 07:04:53;;;;;;;6.88;6.05;;;;;;;15.14;100.00;101590.41;4944464;28;20081;-82
2022/08/30 07:07:22;;;;;;;6.53;5.43;;;;;;;15.17;100.00;101593.00;4930835;28;20054;-82
2022/08/30 07:09:49;;;;;;;9.80;6.25;;;;;;;15.23;100.00;101587.66;4916032;29;20109;-83
2022/08/30 07:12:16;;;;;;;12.30;7.05;;;;;;;15.27;100.00;101583.22;4942363;28;20039;-83
2022/08/30 07:14:46;;;;;;;9.30;6.82;;;;;;;15.36;100.00;101588.38;4925756;29;20054;-83
2022/08/30 07:19:57;;;;;;;7.72;6.93;;;;;;;15.55;100.00;101591.59;4940056;28;20047;-83
2022/08/30 07:22:24;;;;;;;10.48;6.78;;;;;;;15.61;100.00;101596.78;4931895;28;20058;-83
2022/08/30 07:24:50;;;;;;;9.50;6.68;;;;;;;15.67;100.00;101599.34;4920160;29;20051;-83
2022/08/30 07:27:17;;;;;;;11.05;7.18;;;;;;;15.69;100.00;101600.16;4940929;28;20407;-82
2022/08/30 07:29:44;;;;;;;8.57;6.10;;;;;;;15.74;100.00;101607.19;4936511;28;20058;-82
2022/08/30 07:32:12;;;;;;;8.95;6.18;;;;;;;15.85;100.00;101589.41;4936732;28;20228;-83
2022/08/30 07:34:39;;;;;;;12.38;7.28;;;;;;;15.93;100.00;101591.94;4935704;28;20058;-82
2022/08/30 07:37:05;;;;;;;9.98;7.43;;;;;;;15.92;100.00;101599.00;4937887;28;20047;-83
2022/08/30 07:39:33;;;;;;;12.07;8.10;;;;;;;15.95;100.00;101604.22;4934450;28;20118;-82
2022/08/30 07:41:59;;;;;;;15.32;8.00;;;;;;;15.93;100.00;101600.75;4948494;28;20043;-83
2022/08/30 07:44:28;;;;;;;17.58;9.70;;;;;;;15.90;100.00;101602.56;4922044;28;20075;-83
2022/08/30 07:46:56;;;;;;;18.45;9.80;;;;;;;15.84;100.00;101614.97;4938246;28;20051;-82
2022/08/30 07:49:24;;;;;;;16.90;9.45;;;;;;;15.85;100.00;101616.72;4925120;28;20375;-83
2022/08/30 07:51:52;;;;;;;17.15;9.75;;;;;;;15.97;100.00;101620.91;4940718;28;20047;-82
2022/08/30 07:54:23;;;;;;;17.27;8.82;;;;;;;16.07;100.00;101620.75;4925145;28;21015;-82
2022/08/30 07:56:54;;;;;;;14.35;8.77;;;;;;;16.17;100.00;101614.44;4922174;29;20055;-82
2022/08/30 07:59:22;;;;;;;18.48;11.80;;;;;;;16.33;99.10;101623.81;4945004;28;20506;-82
2022/08/30 08:01:51;;;;;;;16.77;11.15;;;;;;;16.44;97.32;101621.00;4940578;28;20103;-82
2022/08/30 08:04:19;;;;;;;16.25;10.57;;;;;;;16.49;96.81;101618.25;4927633;28;20047;-82
2022/08/30 08:06:46;;;;;;;15.13;9.27;;;;;;;16.62;95.98;101625.09;4938544;28;20057;-82
2022/08/30 08:09:12;;;;;;;14.15;9.13;;;;;;;16.61;95.38;101622.47;4938751;28;20119;-82
2022/08/30 08:11:42;;;;;;;13.48;7.88;;;;;;;16.64;95.40;101625.91;4940584;28;20063;-82
2022/08/30 08:14:10;;;;;;;14.82;9.38;;;;;;;16.69;94.28;101636.41;4944052;28;20036;-83
2022/08/30 08:16:37;;;;;;;17.90;9.10;;;;;;;16.69;94.00;101633.78;4932755;28;20079;-82
2022/08/30 08:19:07;;;;;;;11.85;8.73;;;;;;;16.69;93.80;101634.63;4929377;28;20047;-83
2022/08/30 08:21:40;;;;;;;12.10;8.60;;;;;;;16.72;93.05;101630.22;4961951;28;20043;-82
2022/08/30 08:24:09;;;;;;;17.92;10.75;;;;;;;16.78;92.38;101636.25;4965459;28;20043;-82
2022/08/30 08:26:38;;;;;;;17.88;10.68;;;;;;;16.78;91.52;101632.72;4963110;28;20071;-82
2022/08/30 08:29:07;;;;;;;19.42;11.07;;;;;;;16.81;91.66;101630.88;4966957;28;20043;-83
2022/08/30 08:31:34;;;;;;;17.23;11.18;;;;;;;16.86;90.39;101631.66;4945626;28;20371;-83
2022/08/30 08:34:04;;;;;;;16.48;10.40;;;;;;;16.86;88.92;101636.97;4942921;28;20124;-83
2022/08/30 08:36:32;;;;;;;18.92;9.55;;;;;;;16.75;89.87;101638.97;4930213;28;20052;-85
2022/08/30 08:39:03;;;;;;;20.35;10.38;;;;;;;16.83;90.71;101637.03;4941138;28;20138;-82
2022/08/30 08:42:07;;;;;;;16.23;9.63;;;;;;;16.91;89.60;101628.97;4940102;28;20051;-83
2022/08/30 08:48:05;;;;;;;26.27;12.93;;;;;;;16.89;89.08;101632.53;4946297;28;20490;-83
2022/08/30 08:50:33;;;;;;;21.23;13.82;;;;;;;16.94;89.19;101638.63;4931416;28;20199;-83
2022/08/30 08:53:34;;;;;;;24.75;13.30;;;;;;;16.96;87.90;101639.44;4930138;28;20098;-84
2022/08/30 08:56:07;;;;;;;19.48;13.43;;;;;;;16.84;88.72;101637.88;4949230;28;20035;-84
2022/08/30 08:58:52;;;;;;;18.48;13.23;;;;;;;17.05;87.91;101639.25;4945991;28;20054;-83
2022/08/30 09:01:24;;;;;;;24.35;13.93;;;;;;;17.19;86.32;101646.94;4949017;28;20046;-83
2022/08/30 09:03:51;;;;;;;22.23;14.32;;;;;;;17.25;85.73;101641.50;4932316;28;20050;-84
2022/08/30 09:06:42;;;;;;;20.08;13.38;;;;;;;17.33;85.57;101641.34;4944099;28;20057;-83
2022/08/30 09:09:12;;;;;;;28.20;16.25;;;;;;;17.42;85.08;101640.28;4945688;28;20047;-83
2022/08/30 09:11:40;;;;;;;22.80;13.40;;;;;;;17.50;84.78;101641.84;4909760;28;20043;-82
2022/08/30 09:14:13;;;;;;;25.20;14.32;;;;;;;17.66;84.32;101630.91;4941884;28;20049;-83
2022/08/30 09:17:06;;;;;;;23.08;14.27;;;;;;;17.82;83.38;101634.06;4941853;28;20079;-83
2022/08/30 09:19:44;;;;;;;23.38;14.40;;;;;;;17.81;82.04;101630.56;4949336;28;20131;-82
2022/08/30 09:22:39;;;;;;;20.95;13.88;;;;;;;17.86;81.02;101627.81;4957499;28;20054;-82
2022/08/30 09:25:14;;;;;;;15.80;10.93;;;;;;;18.05;79.38;101627.41;4936543;28;20051;-85
2022/08/30 09:28:01;;;;;;;19.20;10.50;;;;;;;18.14;79.49;101621.88;4933811;29;20055;-83
2022/08/30 09:30:30;;;;;;;15.07;9.57;;;;;;;18.44;77.86;101625.50;4949383;28;20419;-82
2022/08/30 09:33:06;;;;;;;16.05;10.55;;;;;;;18.47;77.14;101629.84;4934467;29;20103;-83
2022/08/30 09:35:45;;;;;;;8.45;6.45;;;;;;;18.39;77.56;101632.69;4940067;29;20082;-84
2022/08/30 09:38:29;;;;;;;10.52;7.40;;;;;;;18.36;77.44;101632.78;4953458;28;20038;-84
2022/08/30 09:41:05;;;;;;;8.02;6.13;;;;;;;18.44;77.63;101628.16;4947430;28;20079;-83
2022/08/30 09:43:35;;;;;;;5.03;4.55;;;;;;;18.38;77.51;101638.03;4959467;28;20048;-82
2022/08/30 09:46:04;;;;;;;9.68;4.78;;;;;;;18.30;78.09;101646.19;4939299;28;20050;-83
2022/08/30 09:48:41;;;;;;;5.25;4.75;;;;;;;18.12;79.28;101635.16;4940188;28;20047;-84
2022/08/30 09:51:24;;;;;;;4.60;4.22;;;;;;;17.97;79.22;101635.53;4937743;28;20130;-82
2022/08/30 09:54:19;;;;;;;3.72;3.42;;;;;;;17.75;80.87;101643.09;4962624;28;20392;-83
2022/08/30 09:57:30;;;;;;;5.60;4.40;;;;;;;17.75;80.78;101645.72;4950649;28;20134;-83
2022/08/30 10:00:06;;;;;;;4.60;4.20;;;;;;;17.81;79.70;101643.81;4955949;28;20090;-82
2022/08/30 10:03:04;;;;;;;4.68;4.28;;;;;;;17.83;79.75;101633.16;4954984;28;20153;-84
2022/08/30 10:06:03;;;;;;;3.97;3.67;;;;;;;17.87;80.17;101637.47;4954642;28;20069;-85
2022/08/30 10:09:04;;;;;;;3.85;3.40;;;;;;;18.01;78.73;101635.41;4954628;28;20058;-83
2022/08/30 10:12:12;;;;;;;3.72;3.42;;;;;;;18.10;78.19;101639.59;4935023;28;20051;-83
2022/08/30 10:15:08;;;;;;;4.63;3.42;;;;;;;18.01;78.81;101639.84;4948685;28;20031;-84
2022/08/30 10:18:14;;;;;;;4.32;3.95;;;;;;;18.04;78.74;101639.75;4940673;28;20074;-83
2022/08/30 10:21:11;;;;;;;3.60;3.30;;;;;;;18.06;79.88;101637.94;4941480;28;20763;-83
2022/08/30 10:23:46;;;;;;;5.70;4.20;;;;;;;17.93;80.88;101633.88;4943713;28;20060;-83
2022/08/30 10:26:33;;;;;;;4.57;4.28;;;;;;;17.98;80.94;101624.88;4933236;28;20047;-84
2022/08/30 10:29:28;;;;;;;5.35;4.55;;;;;;;18.05;80.09;101633.56;4929004;29;20613;-84
2022/08/30 10:35:18;;;;;;;5.38;4.95;;;;;;;18.16;78.84;101631.53;4964932;28;20083;-83
2022/08/30 10:37:57;;;;;;;4.65;4.25;;;;;;;18.13;78.31;101638.66;4939652;28;20507;-83
2022/08/30 10:44:04;;;;;;;3.17;3.00;;;;;;;18.32;77.52;101636.44;4946073;28;20054;-83
2022/08/30 10:46:46;;;;;;;5.45;4.80;;;;;;;18.38;77.21;101635.38;4947081;29;20062;-83
2022/08/30 10:49:23;;;;;;;5.20;4.40;;;;;;;18.51;77.33;101635.03;4944638;28;20055;-83
2022/08/30 10:52:11;;;;;;;5.03;4.05;;;;;;;19.33;74.32;101626.59;4930422;28;20065;-84
2022/08/30 10:54:55;;;;;;;4.22;3.92;;;;;;;21.48;62.89;101613.91;4956610;28;20131;-84
2022/08/30 10:57:22;;;;;;;4.20;3.80;;;;;;;21.71;60.64;101609.50;4944376;28;20043;-83
2022/08/30 11:00:01;;;;;;;3.58;3.35;;;;;;;22.77;59.90;101620.16;4929473;29;20118;-84
2022/08/30 11:03:10;;;;;;;3.10;2.90;;;;;;;23.48;55.33;101605.34;4926234;28;20041;-83
2022/08/30 11:05:58;;;;;;;3.42;3.22;;;;;;;24.56;53.19;101607.97;4927340;29;20055;-84
2022/08/30 11:08:46;;;;;;;3.20;3.00;;;;;;;26.41;45.63;101600.28;4944179;28;20062;-84
2022/08/30 11:11:50;;;;;;;3.20;3.00;;;;;;;27.58;42.93;101588.50;4935640;28;21291;-84
2022/08/30 11:14:20;;;;;;;2.55;2.35;;;;;;;29.14;41.06;101579.59;4956340;28;20075;-84
2022/08/30 11:16:51;;;;;;;3.38;3.08;;;;;;;29.99;40.04;101586.81;4946729;28;20063;-84
2022/08/30 11:19:26;;;;;;;3.13;2.90;;;;;;;30.27;36.90;101590.06;4925932;28;20154;-85
2022/08/30 11:22:15;;;;;;;2.95;2.80;;;;;;;30.72;36.79;101586.59;4925852;28;20055;-85
2022/08/30 11:24:59;;;;;;;2.40;2.30;;;;;;;31.76;35.59;101589.84;4940250;28;20460;-85
2022/08/30 11:27:55;;;;;;;2.67;2.47;;;;;;;32.30;33.45;101585.28;4939296;28;20054;-85
2022/08/30 11:30:31;;;;;;;2.40;2.00;;;;;;;33.15;34.12;101585.94;4925449;28;20091;-85
2022/08/30 11:33:06;;;;;;;2.10;2.00;;;;;;;32.90;32.66;101582.72;4938313;28;20118;-86
2022/08/30 11:35:49;;;;;;;2.05;1.95;;;;;;;33.34;30.98;101579.72;4944405;28;20172;-85
2022/08/30 11:38:38;;;;;;;2.10;2.00;;;;;;;32.55;31.49;101578.56;4926998;28;20051;-84
2022/08/30 11:41:14;;;;;;;1.60;1.60;;;;;;;32.55;33.01;101580.41;4940521;28;20058;-85
2022/08/30 11:43:50;;;;;;;2.45;1.70;;;;;;;32.62;32.08;101576.16;4956029;28;20051;-85
2022/08/30 11:46:26;;;;;;;1.70;1.70;;;;;;;33.17;30.95;101577.66;4923737;28;20107;-85
2022/08/30 11:49:11;;;;;;;1.15;1.15;;;;;;;33.94;30.28;101576.03;4938784;28;20058;-86
2022/08/30 11:52:11;;;;;;;2.83;1.17;;;;;;;33.26;29.97;101563.28;4938608;28;20047;-86
2022/08/30 11:55:26;;;;;;;1.13;1.10;;;;;;;32.00;31.84;101559.81;4942282;28;20494;-87
2022/08/30 11:58:49;;;;;;;4.30;1.55;;;;;;;32.86;30.74;101558.75;4940782;28;20047;-87
2022/08/30 12:01:25;;;;;;;1.73;1.65;;;;;;;32.75;31.68;101552.44;4931977;28;20102;-86